sensor_id;sensor_type;location;lat;lon;timestamp;P1;durP1;ratioP1;P2;durP2;ratioP2
39346;SDS011;26262;49.836;6.632;2024-02-26T00:01:09;3.38;;;0.80;;
39346;SDS011;26262;49.836;6.632;2024-02-26T00:03:34;9.15;;;3.22;;
39346;SDS011;26262;49.836;6.632;2024-02-26T00:06:01;1.92;;;1.05;;
39346;SDS011;26262;49.836;6.632;2024-02-26T00:08:27;2.50;;;0.80;;
39346;SDS011;26262;49.836;6.632;2024-02-26T00:10:53;2.90;;;1.45;;
39346;SDS011;26262;49.836;6.632;2024-02-26T00:13:19;2.45;;;1.02;;
39346;SDS011;26262;49.836;6.632;2024-02-26T00:15:45;1.38;;;0.80;;
39346;SDS011;26262;49.836;6.632;2024-02-26T00:18:11;2.60;;;1.10;;
39346;SDS011;26262;49.836;6.632;2024-02-26T00:20:36;4.60;;;1.00;;
39346;SDS011;26262;49.836;6.632;2024-02-26T00:23:04;4.30;;;1.10;;
39346;SDS011;26262;49.836;6.632;2024-02-26T00:25:29;1.60;;;0.85;;
39346;SDS011;26262;49.836;6.632;2024-02-26T00:27:55;2.13;;;1.02;;
39346;SDS011;26262;49.836;6.632;2024-02-26T00:30:20;1.85;;;0.75;;
39346;SDS011;26262;49.836;6.632;2024-02-26T00:32:47;2.35;;;0.90;;
39346;SDS011;26262;49.836;6.632;2024-02-26T00:35:13;1.85;;;1.20;;
39346;SDS011;26262;49.836;6.632;2024-02-26T00:37:40;2.85;;;0.90;;
39346;SDS011;26262;49.836;6.632;2024-02-26T00:40:08;2.15;;;0.80;;
39346;SDS011;26262;49.836;6.632;2024-02-26T00:42:33;1.33;;;0.70;;
39346;SDS011;26262;49.836;6.632;2024-02-26T00:44:59;1.30;;;0.57;;
39346;SDS011;26262;49.836;6.632;2024-02-26T00:47:25;1.38;;;0.47;;
39346;SDS011;26262;49.836;6.632;2024-02-26T00:49:50;1.38;;;0.80;;
39346;SDS011;26262;49.836;6.632;2024-02-26T00:52:15;1.33;;;0.55;;
39346;SDS011;26262;49.836;6.632;2024-02-26T00:54:41;0.93;;;0.50;;
39346;SDS011;26262;49.836;6.632;2024-02-26T00:57:06;1.27;;;0.60;;
39346;SDS011;26262;49.836;6.632;2024-02-26T00:59:32;0.98;;;0.55;;
39346;SDS011;26262;49.836;6.632;2024-02-26T01:01:58;1.33;;;0.50;;
39346;SDS011;26262;49.836;6.632;2024-02-26T01:04:24;1.13;;;0.60;;
39346;SDS011;26262;49.836;6.632;2024-02-26T01:06:50;1.40;;;0.63;;
39346;SDS011;26262;49.836;6.632;2024-02-26T01:09:15;0.73;;;0.50;;
39346;SDS011;26262;49.836;6.632;2024-02-26T01:11:43;0.88;;;0.50;;
39346;SDS011;26262;49.836;6.632;2024-02-26T01:14:08;1.75;;;0.68;;
39346;SDS011;26262;49.836;6.632;2024-02-26T01:16:34;1.17;;;0.50;;
39346;SDS011;26262;49.836;6.632;2024-02-26T01:19:00;0.82;;;0.40;;
39346;SDS011;26262;49.836;6.632;2024-02-26T01:21:25;1.85;;;0.60;;
39346;SDS011;26262;49.836;6.632;2024-02-26T01:23:54;1.23;;;0.75;;
39346;SDS011;26262;49.836;6.632;2024-02-26T01:26:19;1.60;;;0.70;;
39346;SDS011;26262;49.836;6.632;2024-02-26T01:28:46;1.70;;;0.60;;
39346;SDS011;26262;49.836;6.632;2024-02-26T01:31:12;1.92;;;0.60;;
39346;SDS011;26262;49.836;6.632;2024-02-26T01:33:38;1.50;;;0.50;;
39346;SDS011;26262;49.836;6.632;2024-02-26T01:36:03;1.90;;;0.63;;
39346;SDS011;26262;49.836;6.632;2024-02-26T01:38:29;2.97;;;0.93;;
39346;SDS011;26262;49.836;6.632;2024-02-26T01:40:55;4.07;;;1.00;;
39346;SDS011;26262;49.836;6.632;2024-02-26T01:43:20;1.67;;;0.90;;
39346;SDS011;26262;49.836;6.632;2024-02-26T01:45:46;2.40;;;0.90;;
39346;SDS011;26262;49.836;6.632;2024-02-26T01:48:11;1.10;;;0.73;;
39346;SDS011;26262;49.836;6.632;2024-02-26T01:50:38;2.10;;;0.80;;
39346;SDS011;26262;49.836;6.632;2024-02-26T01:53:05;3.10;;;1.00;;
39346;SDS011;26262;49.836;6.632;2024-02-26T01:55:32;1.73;;;1.08;;
39346;SDS011;26262;49.836;6.632;2024-02-26T01:57:58;1.25;;;0.70;;
39346;SDS011;26262;49.836;6.632;2024-02-26T02:00:24;1.65;;;1.00;;
39346;SDS011;26262;49.836;6.632;2024-02-26T02:02:50;1.05;;;0.70;;
39346;SDS011;26262;49.836;6.632;2024-02-26T02:05:16;1.35;;;0.80;;
39346;SDS011;26262;49.836;6.632;2024-02-26T02:07:43;1.65;;;0.70;;
39346;SDS011;26262;49.836;6.632;2024-02-26T02:10:09;2.55;;;0.70;;
39346;SDS011;26262;49.836;6.632;2024-02-26T02:12:34;1.50;;;0.80;;
39346;SDS011;26262;49.836;6.632;2024-02-26T02:15:03;1.17;;;0.60;;
39346;SDS011;26262;49.836;6.632;2024-02-26T02:17:30;2.60;;;0.77;;
39346;SDS011;26262;49.836;6.632;2024-02-26T02:19:56;1.63;;;0.70;;
39346;SDS011;26262;49.836;6.632;2024-02-26T02:22:21;1.88;;;0.80;;
39346;SDS011;26262;49.836;6.632;2024-02-26T02:24:48;2.67;;;0.90;;
39346;SDS011;26262;49.836;6.632;2024-02-26T02:27:14;1.25;;;0.77;;
39346;SDS011;26262;49.836;6.632;2024-02-26T02:29:39;1.58;;;0.80;;
39346;SDS011;26262;49.836;6.632;2024-02-26T02:32:06;1.23;;;0.70;;
39346;SDS011;26262;49.836;6.632;2024-02-26T02:34:31;0.77;;;0.60;;
39346;SDS011;26262;49.836;6.632;2024-02-26T02:36:59;2.05;;;0.70;;
39346;SDS011;26262;49.836;6.632;2024-02-26T02:39:24;1.75;;;0.80;;
39346;SDS011;26262;49.836;6.632;2024-02-26T02:41:50;1.02;;;0.65;;
39346;SDS011;26262;49.836;6.632;2024-02-26T02:44:15;2.08;;;0.70;;
39346;SDS011;26262;49.836;6.632;2024-02-26T02:46:41;1.42;;;0.70;;
39346;SDS011;26262;49.836;6.632;2024-02-26T02:49:08;2.45;;;1.15;;
39346;SDS011;26262;49.836;6.632;2024-02-26T02:51:35;1.35;;;0.60;;
39346;SDS011;26262;49.836;6.632;2024-02-26T02:54:01;1.08;;;0.70;;
39346;SDS011;26262;49.836;6.632;2024-02-26T02:56:26;0.88;;;0.60;;
39346;SDS011;26262;49.836;6.632;2024-02-26T02:58:52;0.85;;;0.57;;
39346;SDS011;26262;49.836;6.632;2024-02-26T03:01:18;0.88;;;0.70;;
39346;SDS011;26262;49.836;6.632;2024-02-26T03:03:43;1.17;;;0.70;;
39346;SDS011;26262;49.836;6.632;2024-02-26T03:06:09;1.08;;;0.60;;
39346;SDS011;26262;49.836;6.632;2024-02-26T03:08:35;0.93;;;0.68;;
39346;SDS011;26262;49.836;6.632;2024-02-26T03:11:04;2.10;;;0.70;;
39346;SDS011;26262;49.836;6.632;2024-02-26T03:13:30;0.95;;;0.50;;
39346;SDS011;26262;49.836;6.632;2024-02-26T03:15:56;1.50;;;0.60;;
39346;SDS011;26262;49.836;6.632;2024-02-26T03:18:22;1.58;;;0.63;;
39346;SDS011;26262;49.836;6.632;2024-02-26T03:20:47;0.75;;;0.55;;
39346;SDS011;26262;49.836;6.632;2024-02-26T03:23:14;2.08;;;0.70;;
39346;SDS011;26262;49.836;6.632;2024-02-26T03:25:42;2.13;;;0.88;;
39346;SDS011;26262;49.836;6.632;2024-02-26T03:30:34;1.48;;;0.60;;
39346;SDS011;26262;49.836;6.632;2024-02-26T03:33:00;1.25;;;0.60;;
39346;SDS011;26262;49.836;6.632;2024-02-26T03:35:26;2.70;;;0.55;;
39346;SDS011;26262;49.836;6.632;2024-02-26T03:37:51;1.75;;;0.90;;
39346;SDS011;26262;49.836;6.632;2024-02-26T03:40:17;1.95;;;0.55;;
39346;SDS011;26262;49.836;6.632;2024-02-26T03:42:44;1.35;;;1.00;;
39346;SDS011;26262;49.836;6.632;2024-02-26T03:45:10;1.00;;;0.80;;
39346;SDS011;26262;49.836;6.632;2024-02-26T03:47:37;1.48;;;0.80;;
39346;SDS011;26262;49.836;6.632;2024-02-26T03:50:05;3.00;;;0.82;;
39346;SDS011;26262;49.836;6.632;2024-02-26T03:52:31;2.58;;;1.40;;
39346;SDS011;26262;49.836;6.632;2024-02-26T03:54:57;3.33;;;1.38;;
39346;SDS011;26262;49.836;6.632;2024-02-26T03:57:23;5.47;;;1.60;;
39346;SDS011;26262;49.836;6.632;2024-02-26T03:59:48;3.97;;;1.60;;
39346;SDS011;26262;49.836;6.632;2024-02-26T04:02:14;3.58;;;1.67;;
39346;SDS011;26262;49.836;6.632;2024-02-26T04:04:40;2.83;;;1.25;;
39346;SDS011;26262;49.836;6.632;2024-02-26T04:07:06;2.80;;;0.90;;
39346;SDS011;26262;49.836;6.632;2024-02-26T04:09:32;2.75;;;1.30;;
39346;SDS011;26262;49.836;6.632;2024-02-26T04:11:57;1.67;;;1.05;;
39346;SDS011;26262;49.836;6.632;2024-02-26T04:14:23;2.15;;;0.80;;
39346;SDS011;26262;49.836;6.632;2024-02-26T04:16:48;0.77;;;0.63;;
39346;SDS011;26262;49.836;6.632;2024-02-26T04:19:17;0.68;;;0.57;;
39346;SDS011;26262;49.836;6.632;2024-02-26T04:21:43;3.47;;;0.60;;
39346;SDS011;26262;49.836;6.632;2024-02-26T04:24:08;0.50;;;0.45;;
39346;SDS011;26262;49.836;6.632;2024-02-26T04:26:34;1.95;;;0.70;;
39346;SDS011;26262;49.836;6.632;2024-02-26T04:28:59;0.70;;;0.43;;
39346;SDS011;26262;49.836;6.632;2024-02-26T04:31:25;0.77;;;0.40;;
39346;SDS011;26262;49.836;6.632;2024-02-26T04:33:53;1.20;;;0.40;;
39346;SDS011;26262;49.836;6.632;2024-02-26T04:36:19;1.45;;;0.40;;
39346;SDS011;26262;49.836;6.632;2024-02-26T04:38:44;0.98;;;0.55;;
39346;SDS011;26262;49.836;6.632;2024-02-26T04:41:10;0.80;;;0.50;;
39346;SDS011;26262;49.836;6.632;2024-02-26T04:43:37;1.15;;;0.50;;
39346;SDS011;26262;49.836;6.632;2024-02-26T04:46:06;0.95;;;0.40;;
39346;SDS011;26262;49.836;6.632;2024-02-26T04:48:35;1.80;;;0.60;;
39346;SDS011;26262;49.836;6.632;2024-02-26T04:51:02;2.47;;;0.50;;
39346;SDS011;26262;49.836;6.632;2024-02-26T04:53:28;0.55;;;0.35;;
39346;SDS011;26262;49.836;6.632;2024-02-26T04:55:53;1.63;;;0.47;;
39346;SDS011;26262;49.836;6.632;2024-02-26T04:58:19;2.08;;;0.68;;
39346;SDS011;26262;49.836;6.632;2024-02-26T05:00:44;0.77;;;0.60;;
39346;SDS011;26262;49.836;6.632;2024-02-26T05:03:10;0.70;;;0.35;;
39346;SDS011;26262;49.836;6.632;2024-02-26T05:05:38;0.63;;;0.45;;
39346;SDS011;26262;49.836;6.632;2024-02-26T05:08:05;0.95;;;0.60;;
39346;SDS011;26262;49.836;6.632;2024-02-26T05:10:31;1.15;;;0.43;;
39346;SDS011;26262;49.836;6.632;2024-02-26T05:12:57;0.60;;;0.45;;
39346;SDS011;26262;49.836;6.632;2024-02-26T05:15:22;0.60;;;0.50;;
39346;SDS011;26262;49.836;6.632;2024-02-26T05:17:48;0.90;;;0.60;;
39346;SDS011;26262;49.836;6.632;2024-02-26T05:20:13;1.58;;;0.90;;
39346;SDS011;26262;49.836;6.632;2024-02-26T05:22:39;2.20;;;1.42;;
39346;SDS011;26262;49.836;6.632;2024-02-26T05:25:05;3.38;;;1.40;;
39346;SDS011;26262;49.836;6.632;2024-02-26T05:27:30;1.73;;;1.00;;
39346;SDS011;26262;49.836;6.632;2024-02-26T05:29:56;0.95;;;0.70;;
39346;SDS011;26262;49.836;6.632;2024-02-26T05:32:21;0.73;;;0.60;;
39346;SDS011;26262;49.836;6.632;2024-02-26T05:34:47;1.92;;;1.00;;
39346;SDS011;26262;49.836;6.632;2024-02-26T05:37:12;3.50;;;1.10;;
39346;SDS011;26262;49.836;6.632;2024-02-26T05:39:38;1.63;;;0.88;;
39346;SDS011;26262;49.836;6.632;2024-02-26T05:42:04;1.00;;;0.63;;
39346;SDS011;26262;49.836;6.632;2024-02-26T05:44:30;1.33;;;0.90;;
39346;SDS011;26262;49.836;6.632;2024-02-26T05:46:55;1.90;;;0.75;;
39346;SDS011;26262;49.836;6.632;2024-02-26T05:49:22;1.77;;;0.90;;
39346;SDS011;26262;49.836;6.632;2024-02-26T05:51:47;1.88;;;1.00;;
39346;SDS011;26262;49.836;6.632;2024-02-26T05:54:13;1.05;;;0.82;;
39346;SDS011;26262;49.836;6.632;2024-02-26T05:56:39;1.13;;;0.80;;
39346;SDS011;26262;49.836;6.632;2024-02-26T05:59:04;1.20;;;0.95;;
39346;SDS011;26262;49.836;6.632;2024-02-26T06:01:30;1.38;;;0.98;;
39346;SDS011;26262;49.836;6.632;2024-02-26T06:03:56;1.20;;;1.00;;
39346;SDS011;26262;49.836;6.632;2024-02-26T06:06:22;1.55;;;1.10;;
39346;SDS011;26262;49.836;6.632;2024-02-26T06:08:48;2.10;;;1.47;;
39346;SDS011;26262;49.836;6.632;2024-02-26T06:11:14;2.33;;;1.50;;
39346;SDS011;26262;49.836;6.632;2024-02-26T06:13:39;2.97;;;1.80;;
39346;SDS011;26262;49.836;6.632;2024-02-26T06:16:05;1.95;;;1.73;;
39346;SDS011;26262;49.836;6.632;2024-02-26T06:18:32;2.17;;;1.60;;
39346;SDS011;26262;49.836;6.632;2024-02-26T06:20:58;1.80;;;1.35;;
39346;SDS011;26262;49.836;6.632;2024-02-26T06:23:24;3.75;;;1.83;;
39346;SDS011;26262;49.836;6.632;2024-02-26T06:25:51;2.35;;;1.80;;
39346;SDS011;26262;49.836;6.632;2024-02-26T06:28:17;1.90;;;1.23;;
39346;SDS011;26262;49.836;6.632;2024-02-26T06:30:42;2.42;;;1.55;;
39346;SDS011;26262;49.836;6.632;2024-02-26T06:33:08;3.72;;;1.83;;
39346;SDS011;26262;49.836;6.632;2024-02-26T06:35:34;3.20;;;2.45;;
39346;SDS011;26262;49.836;6.632;2024-02-26T06:37:59;3.55;;;2.97;;
39346;SDS011;26262;49.836;6.632;2024-02-26T06:40:25;3.35;;;2.97;;
39346;SDS011;26262;49.836;6.632;2024-02-26T06:42:50;3.97;;;3.40;;
39346;SDS011;26262;49.836;6.632;2024-02-26T06:45:16;3.65;;;2.80;;
39346;SDS011;26262;49.836;6.632;2024-02-26T06:47:43;4.47;;;2.55;;
39346;SDS011;26262;49.836;6.632;2024-02-26T06:50:08;3.88;;;2.75;;
39346;SDS011;26262;49.836;6.632;2024-02-26T06:52:36;4.38;;;3.28;;
39346;SDS011;26262;49.836;6.632;2024-02-26T06:55:02;3.55;;;2.25;;
39346;SDS011;26262;49.836;6.632;2024-02-26T06:57:27;2.25;;;1.95;;
39346;SDS011;26262;49.836;6.632;2024-02-26T06:59:53;3.90;;;2.35;;
39346;SDS011;26262;49.836;6.632;2024-02-26T07:02:18;1.63;;;1.25;;
39346;SDS011;26262;49.836;6.632;2024-02-26T07:04:44;2.47;;;1.30;;
39346;SDS011;26262;49.836;6.632;2024-02-26T07:07:09;1.92;;;1.30;;
39346;SDS011;26262;49.836;6.632;2024-02-26T07:09:35;1.08;;;0.85;;
39346;SDS011;26262;49.836;6.632;2024-02-26T07:12:01;4.60;;;2.00;;
39346;SDS011;26262;49.836;6.632;2024-02-26T07:14:27;1.10;;;1.00;;
39346;SDS011;26262;49.836;6.632;2024-02-26T07:16:53;1.63;;;1.42;;
39346;SDS011;26262;49.836;6.632;2024-02-26T07:19:18;1.13;;;0.70;;
39346;SDS011;26262;49.836;6.632;2024-02-26T07:21:44;2.83;;;1.15;;
39346;SDS011;26262;49.836;6.632;2024-02-26T07:24:09;2.72;;;1.50;;
39346;SDS011;26262;49.836;6.632;2024-02-26T07:26:35;2.38;;;1.98;;
39346;SDS011;26262;49.836;6.632;2024-02-26T07:29:00;3.28;;;2.17;;
39346;SDS011;26262;49.836;6.632;2024-02-26T07:31:26;2.63;;;1.52;;
39346;SDS011;26262;49.836;6.632;2024-02-26T07:33:51;2.13;;;1.60;;
39346;SDS011;26262;49.836;6.632;2024-02-26T07:36:17;2.35;;;1.50;;
39346;SDS011;26262;49.836;6.632;2024-02-26T07:38:42;2.40;;;1.75;;
39346;SDS011;26262;49.836;6.632;2024-02-26T07:41:08;2.58;;;1.45;;
39346;SDS011;26262;49.836;6.632;2024-02-26T07:43:34;3.92;;;3.30;;
39346;SDS011;26262;49.836;6.632;2024-02-26T07:45:59;5.32;;;4.82;;
39346;SDS011;26262;49.836;6.632;2024-02-26T07:48:25;4.82;;;4.35;;
39346;SDS011;26262;49.836;6.632;2024-02-26T07:50:51;4.63;;;4.18;;
39346;SDS011;26262;49.836;6.632;2024-02-26T07:53:16;4.60;;;4.10;;
39346;SDS011;26262;49.836;6.632;2024-02-26T07:55:42;5.57;;;3.65;;
39346;SDS011;26262;49.836;6.632;2024-02-26T07:58:07;4.88;;;3.72;;
39346;SDS011;26262;49.836;6.632;2024-02-26T08:00:33;4.82;;;3.92;;
39346;SDS011;26262;49.836;6.632;2024-02-26T08:02:58;4.00;;;2.90;;
39346;SDS011;26262;49.836;6.632;2024-02-26T08:05:24;4.05;;;2.28;;
39346;SDS011;26262;49.836;6.632;2024-02-26T08:07:50;3.50;;;2.85;;
39346;SDS011;26262;49.836;6.632;2024-02-26T08:10:15;3.67;;;2.70;;
39346;SDS011;26262;49.836;6.632;2024-02-26T08:12:41;3.30;;;2.75;;
39346;SDS011;26262;49.836;6.632;2024-02-26T08:15:07;4.70;;;2.92;;
39346;SDS011;26262;49.836;6.632;2024-02-26T08:17:33;3.22;;;2.22;;
39346;SDS011;26262;49.836;6.632;2024-02-26T08:19:59;3.47;;;2.65;;
39346;SDS011;26262;49.836;6.632;2024-02-26T08:22:25;4.28;;;2.88;;
39346;SDS011;26262;49.836;6.632;2024-02-26T08:24:50;7.10;;;5.60;;
39346;SDS011;26262;49.836;6.632;2024-02-26T08:27:16;4.80;;;3.80;;
39346;SDS011;26262;49.836;6.632;2024-02-26T08:29:42;5.07;;;3.38;;
39346;SDS011;26262;49.836;6.632;2024-02-26T08:32:08;5.47;;;4.57;;
39346;SDS011;26262;49.836;6.632;2024-02-26T08:34:33;4.55;;;4.00;;
39346;SDS011;26262;49.836;6.632;2024-02-26T08:36:59;5.40;;;4.13;;
39346;SDS011;26262;49.836;6.632;2024-02-26T08:39:24;5.45;;;4.03;;
39346;SDS011;26262;49.836;6.632;2024-02-26T08:41:50;4.95;;;4.18;;
39346;SDS011;26262;49.836;6.632;2024-02-26T08:44:16;5.63;;;4.28;;
39346;SDS011;26262;49.836;6.632;2024-02-26T08:46:42;4.30;;;3.40;;
39346;SDS011;26262;49.836;6.632;2024-02-26T08:49:07;3.80;;;3.20;;
39346;SDS011;26262;49.836;6.632;2024-02-26T08:51:33;4.43;;;3.20;;
39346;SDS011;26262;49.836;6.632;2024-02-26T08:53:58;6.30;;;3.65;;
39346;SDS011;26262;49.836;6.632;2024-02-26T08:56:24;6.18;;;3.40;;
39346;SDS011;26262;49.836;6.632;2024-02-26T08:58:49;4.72;;;3.55;;
39346;SDS011;26262;49.836;6.632;2024-02-26T09:01:18;6.15;;;4.63;;
39346;SDS011;26262;49.836;6.632;2024-02-26T09:03:44;6.85;;;4.85;;
39346;SDS011;26262;49.836;6.632;2024-02-26T09:06:09;4.82;;;3.95;;
39346;SDS011;26262;49.836;6.632;2024-02-26T09:08:36;6.00;;;4.07;;
39346;SDS011;26262;49.836;6.632;2024-02-26T09:11:02;7.55;;;4.70;;
39346;SDS011;26262;49.836;6.632;2024-02-26T09:13:28;5.60;;;4.35;;
39346;SDS011;26262;49.836;6.632;2024-02-26T09:15:54;5.28;;;3.42;;
39346;SDS011;26262;49.836;6.632;2024-02-26T09:18:19;4.53;;;2.78;;
39346;SDS011;26262;49.836;6.632;2024-02-26T09:20:45;3.75;;;3.05;;
39346;SDS011;26262;49.836;6.632;2024-02-26T09:23:11;3.55;;;2.25;;
39346;SDS011;26262;49.836;6.632;2024-02-26T09:25:36;4.10;;;3.42;;
39346;SDS011;26262;49.836;6.632;2024-02-26T09:28:02;3.38;;;2.53;;
39346;SDS011;26262;49.836;6.632;2024-02-26T09:30:28;2.75;;;2.15;;
39346;SDS011;26262;49.836;6.632;2024-02-26T09:32:54;3.45;;;2.33;;
39346;SDS011;26262;49.836;6.632;2024-02-26T09:35:19;2.60;;;1.92;;
39346;SDS011;26262;49.836;6.632;2024-02-26T09:37:46;2.58;;;1.85;;
39346;SDS011;26262;49.836;6.632;2024-02-26T09:40:13;2.63;;;2.00;;
39346;SDS011;26262;49.836;6.632;2024-02-26T09:42:43;3.55;;;2.30;;
39346;SDS011;26262;49.836;6.632;2024-02-26T09:45:11;2.58;;;1.70;;
39346;SDS011;26262;49.836;6.632;2024-02-26T09:47:42;3.78;;;2.38;;
39346;SDS011;26262;49.836;6.632;2024-02-26T09:50:09;2.50;;;1.80;;
39346;SDS011;26262;49.836;6.632;2024-02-26T09:52:38;6.03;;;2.28;;
39346;SDS011;26262;49.836;6.632;2024-02-26T09:55:06;1.30;;;0.77;;
39346;SDS011;26262;49.836;6.632;2024-02-26T09:57:34;1.98;;;0.90;;
39346;SDS011;26262;49.836;6.632;2024-02-26T10:00:02;1.27;;;0.60;;
39346;SDS011;26262;49.836;6.632;2024-02-26T10:02:30;1.13;;;0.70;;
39346;SDS011;26262;49.836;6.632;2024-02-26T10:04:57;1.15;;;0.65;;
39346;SDS011;26262;49.836;6.632;2024-02-26T10:07:29;1.05;;;0.52;;
39346;SDS011;26262;49.836;6.632;2024-02-26T10:09:55;3.30;;;0.90;;
39346;SDS011;26262;49.836;6.632;2024-02-26T10:12:21;2.03;;;1.17;;
39346;SDS011;26262;49.836;6.632;2024-02-26T10:14:48;10.03;;;5.33;;
39346;SDS011;26262;49.836;6.632;2024-02-26T10:17:13;5.00;;;3.25;;
39346;SDS011;26262;49.836;6.632;2024-02-26T10:19:40;3.60;;;2.53;;
39346;SDS011;26262;49.836;6.632;2024-02-26T10:22:05;2.47;;;1.30;;
39346;SDS011;26262;49.836;6.632;2024-02-26T10:24:31;1.15;;;0.90;;
39346;SDS011;26262;49.836;6.632;2024-02-26T10:26:57;1.23;;;0.93;;
39346;SDS011;26262;49.836;6.632;2024-02-26T10:29:25;1.58;;;1.00;;
39346;SDS011;26262;49.836;6.632;2024-02-26T10:31:51;1.05;;;0.80;;
39346;SDS011;26262;49.836;6.632;2024-02-26T10:34:17;1.40;;;0.88;;
39346;SDS011;26262;49.836;6.632;2024-02-26T10:36:43;1.98;;;1.35;;
39346;SDS011;26262;49.836;6.632;2024-02-26T10:39:09;0.98;;;0.75;;
39346;SDS011;26262;49.836;6.632;2024-02-26T10:41:37;1.30;;;0.70;;
39346;SDS011;26262;49.836;6.632;2024-02-26T10:44:03;1.50;;;0.90;;
39346;SDS011;26262;49.836;6.632;2024-02-26T10:46:29;1.65;;;0.90;;
39346;SDS011;26262;49.836;6.632;2024-02-26T10:48:55;1.70;;;0.88;;
39346;SDS011;26262;49.836;6.632;2024-02-26T10:51:27;2.08;;;1.30;;
39346;SDS011;26262;49.836;6.632;2024-02-26T10:53:57;3.03;;;1.08;;
39346;SDS011;26262;49.836;6.632;2024-02-26T10:56:27;3.33;;;1.48;;
39346;SDS011;26262;49.836;6.632;2024-02-26T10:58:54;3.05;;;1.30;;
39346;SDS011;26262;49.836;6.632;2024-02-26T11:01:20;3.83;;;1.98;;
39346;SDS011;26262;49.836;6.632;2024-02-26T11:03:51;2.92;;;1.60;;
39346;SDS011;26262;49.836;6.632;2024-02-26T11:06:24;2.50;;;1.67;;
39346;SDS011;26262;49.836;6.632;2024-02-26T11:08:51;2.00;;;1.02;;
39346;SDS011;26262;49.836;6.632;2024-02-26T11:11:17;3.55;;;1.20;;
39346;SDS011;26262;49.836;6.632;2024-02-26T11:13:46;2.03;;;1.08;;
39346;SDS011;26262;49.836;6.632;2024-02-26T11:16:20;2.53;;;1.30;;
39346;SDS011;26262;49.836;6.632;2024-02-26T11:18:49;1.33;;;1.20;;
39346;SDS011;26262;49.836;6.632;2024-02-26T11:21:16;2.22;;;1.40;;
39346;SDS011;26262;49.836;6.632;2024-02-26T11:23:44;1.65;;;1.05;;
39346;SDS011;26262;49.836;6.632;2024-02-26T11:26:11;2.13;;;1.20;;
39346;SDS011;26262;49.836;6.632;2024-02-26T11:28:38;2.72;;;1.58;;
39346;SDS011;26262;49.836;6.632;2024-02-26T11:31:04;1.63;;;1.00;;
39346;SDS011;26262;49.836;6.632;2024-02-26T11:33:32;3.65;;;1.80;;
39346;SDS011;26262;49.836;6.632;2024-02-26T11:36:00;2.28;;;1.42;;
39346;SDS011;26262;49.836;6.632;2024-02-26T11:38:36;1.80;;;1.10;;
39346;SDS011;26262;49.836;6.632;2024-02-26T11:41:02;2.38;;;1.20;;
39346;SDS011;26262;49.836;6.632;2024-02-26T11:46:27;3.50;;;1.30;;
39346;SDS011;26262;49.836;6.632;2024-02-26T11:49:00;1.17;;;0.85;;
39346;SDS011;26262;49.836;6.632;2024-02-26T11:51:27;2.38;;;0.90;;
39346;SDS011;26262;49.836;6.632;2024-02-26T11:53:57;2.40;;;1.05;;
39346;SDS011;26262;49.836;6.632;2024-02-26T11:56:24;1.10;;;0.70;;
39346;SDS011;26262;49.836;6.632;2024-02-26T11:58:58;1.17;;;0.80;;
39346;SDS011;26262;49.836;6.632;2024-02-26T12:01:42;1.65;;;0.88;;
39346;SDS011;26262;49.836;6.632;2024-02-26T12:04:18;1.65;;;0.80;;
39346;SDS011;26262;49.836;6.632;2024-02-26T12:06:47;1.98;;;0.77;;
39346;SDS011;26262;49.836;6.632;2024-02-26T12:09:32;1.48;;;0.82;;
39346;SDS011;26262;49.836;6.632;2024-02-26T12:12:05;2.42;;;1.17;;
39346;SDS011;26262;49.836;6.632;2024-02-26T12:14:39;2.25;;;1.48;;
39346;SDS011;26262;49.836;6.632;2024-02-26T12:17:18;3.22;;;1.35;;
39346;SDS011;26262;49.836;6.632;2024-02-26T12:19:45;6.43;;;5.28;;
39346;SDS011;26262;49.836;6.632;2024-02-26T12:22:12;4.85;;;2.33;;
39346;SDS011;26262;49.836;6.632;2024-02-26T12:24:39;2.17;;;1.30;;
39346;SDS011;26262;49.836;6.632;2024-02-26T12:27:04;1.65;;;1.45;;
39346;SDS011;26262;49.836;6.632;2024-02-26T12:29:31;1.80;;;1.15;;
39346;SDS011;26262;49.836;6.632;2024-02-26T12:31:56;2.53;;;2.08;;
39346;SDS011;26262;49.836;6.632;2024-02-26T12:34:22;1.88;;;1.13;;
39346;SDS011;26262;49.836;6.632;2024-02-26T12:36:48;2.65;;;0.80;;
39346;SDS011;26262;49.836;6.632;2024-02-26T12:39:14;1.63;;;1.40;;
39346;SDS011;26262;49.836;6.632;2024-02-26T12:41:40;1.58;;;1.13;;
39346;SDS011;26262;49.836;6.632;2024-02-26T12:44:06;3.72;;;1.92;;
39346;SDS011;26262;49.836;6.632;2024-02-26T12:46:33;2.08;;;1.30;;
39346;SDS011;26262;49.836;6.632;2024-02-26T12:48:58;1.75;;;0.95;;
39346;SDS011;26262;49.836;6.632;2024-02-26T12:51:27;2.05;;;0.60;;
39346;SDS011;26262;49.836;6.632;2024-02-26T12:53:54;1.20;;;0.70;;
39346;SDS011;26262;49.836;6.632;2024-02-26T12:56:21;2.90;;;1.48;;
39346;SDS011;26262;49.836;6.632;2024-02-26T12:58:47;1.73;;;0.90;;
39346;SDS011;26262;49.836;6.632;2024-02-26T13:01:15;1.83;;;0.70;;
39346;SDS011;26262;49.836;6.632;2024-02-26T13:03:43;2.95;;;0.80;;
39346;SDS011;26262;49.836;6.632;2024-02-26T13:06:09;2.97;;;1.40;;
39346;SDS011;26262;49.836;6.632;2024-02-26T13:08:36;2.28;;;0.93;;
39346;SDS011;26262;49.836;6.632;2024-02-26T13:11:01;2.30;;;1.65;;
39346;SDS011;26262;49.836;6.632;2024-02-26T13:13:27;1.48;;;0.95;;
39346;SDS011;26262;49.836;6.632;2024-02-26T13:16:03;2.17;;;0.90;;
39346;SDS011;26262;49.836;6.632;2024-02-26T13:18:30;2.00;;;1.02;;
39346;SDS011;26262;49.836;6.632;2024-02-26T13:21:11;1.15;;;0.88;;
39346;SDS011;26262;49.836;6.632;2024-02-26T13:23:38;2.05;;;0.60;;
39346;SDS011;26262;49.836;6.632;2024-02-26T13:26:04;2.42;;;1.92;;
39346;SDS011;26262;49.836;6.632;2024-02-26T13:28:30;2.03;;;1.38;;
39346;SDS011;26262;49.836;6.632;2024-02-26T13:30:57;2.38;;;0.90;;
39346;SDS011;26262;49.836;6.632;2024-02-26T13:33:24;1.95;;;0.88;;
39346;SDS011;26262;49.836;6.632;2024-02-26T13:35:51;4.03;;;1.20;;
39346;SDS011;26262;49.836;6.632;2024-02-26T13:38:17;2.20;;;1.30;;
39346;SDS011;26262;49.836;6.632;2024-02-26T13:40:43;3.15;;;1.50;;
39346;SDS011;26262;49.836;6.632;2024-02-26T13:43:09;4.68;;;2.08;;
39346;SDS011;26262;49.836;6.632;2024-02-26T13:45:35;8.65;;;6.32;;
39346;SDS011;26262;49.836;6.632;2024-02-26T13:48:02;5.95;;;3.85;;
39346;SDS011;26262;49.836;6.632;2024-02-26T13:50:29;3.55;;;1.52;;
39346;SDS011;26262;49.836;6.632;2024-02-26T13:52:54;12.55;;;8.25;;
39346;SDS011;26262;49.836;6.632;2024-02-26T13:55:21;6.00;;;4.13;;
39346;SDS011;26262;49.836;6.632;2024-02-26T13:57:49;3.05;;;1.85;;
39346;SDS011;26262;49.836;6.632;2024-02-26T14:00:16;3.17;;;2.00;;
39346;SDS011;26262;49.836;6.632;2024-02-26T14:02:42;3.50;;;1.85;;
39346;SDS011;26262;49.836;6.632;2024-02-26T14:05:08;3.45;;;2.47;;
39346;SDS011;26262;49.836;6.632;2024-02-26T14:07:34;10.80;;;7.50;;
39346;SDS011;26262;49.836;6.632;2024-02-26T14:09:59;8.13;;;6.65;;
39346;SDS011;26262;49.836;6.632;2024-02-26T14:12:25;11.45;;;8.98;;
39346;SDS011;26262;49.836;6.632;2024-02-26T14:14:50;4.57;;;3.00;;
39346;SDS011;26262;49.836;6.632;2024-02-26T14:17:18;4.00;;;2.20;;
39346;SDS011;26262;49.836;6.632;2024-02-26T14:19:47;4.50;;;1.65;;
39346;SDS011;26262;49.836;6.632;2024-02-26T14:22:13;3.97;;;1.35;;
39346;SDS011;26262;49.836;6.632;2024-02-26T14:24:40;7.78;;;4.35;;
39346;SDS011;26262;49.836;6.632;2024-02-26T14:27:07;5.70;;;3.53;;
39346;SDS011;26262;49.836;6.632;2024-02-26T14:29:33;4.75;;;2.58;;
39346;SDS011;26262;49.836;6.632;2024-02-26T14:31:59;1.85;;;1.20;;
39346;SDS011;26262;49.836;6.632;2024-02-26T14:34:26;2.20;;;1.00;;
39346;SDS011;26262;49.836;6.632;2024-02-26T14:36:52;2.05;;;1.05;;
39346;SDS011;26262;49.836;6.632;2024-02-26T14:39:18;2.40;;;1.00;;
39346;SDS011;26262;49.836;6.632;2024-02-26T14:41:43;2.45;;;0.88;;
39346;SDS011;26262;49.836;6.632;2024-02-26T14:44:09;1.55;;;1.05;;
39346;SDS011;26262;49.836;6.632;2024-02-26T14:46:35;1.77;;;0.90;;
39346;SDS011;26262;49.836;6.632;2024-02-26T14:49:01;4.43;;;1.38;;